createdAt,value
2023-01-18T00:01:21.281Z,26.05
2023-01-18T00:03:49.754Z,26.39
2023-01-18T00:06:17.948Z,26.36
2023-01-18T00:08:46.080Z,26.76
2023-01-18T00:11:17.743Z,26.60
2023-01-18T00:13:48.326Z,26.51
2023-01-18T00:16:22.304Z,26.60
2023-01-18T00:18:55.580Z,26.29
2023-01-18T00:21:25.347Z,25.74
2023-01-18T00:23:55.774Z,25.60
2023-01-18T00:26:24.196Z,25.43
2023-01-18T00:28:52.383Z,25.02
2023-01-18T00:31:21.661Z,25.06
2023-01-18T00:33:50.966Z,24.92
2023-01-18T00:36:20.233Z,24.72
2023-01-18T00:38:52.401Z,24.44
2023-01-18T00:41:22.713Z,24.47
2023-01-18T00:43:51.650Z,24.24
2023-01-18T00:46:22.697Z,24.12
2023-01-18T00:48:52.363Z,23.95
2023-01-18T00:51:24.017Z,24.00
2023-01-18T00:53:52.232Z,23.97
2023-01-18T00:56:22.573Z,23.93
2023-01-18T00:58:51.658Z,23.73
2023-01-18T01:01:20.096Z,23.66
2023-01-18T01:03:48.369Z,23.42
2023-01-18T01:06:17.256Z,23.54
2023-01-18T01:08:45.487Z,23.42
2023-01-18T01:11:14.253Z,23.66
2023-01-18T01:13:42.455Z,23.50
2023-01-18T01:16:11.706Z,23.37
2023-01-18T01:18:41.371Z,23.15
2023-01-18T01:21:09.939Z,23.24
2023-01-18T01:23:38.071Z,23.18
2023-01-18T01:26:08.136Z,23.02
2023-01-18T01:28:41.737Z,23.22
2023-01-18T01:31:14.339Z,23.20
2023-01-18T01:33:42.926Z,23.42
2023-01-18T01:36:14.370Z,23.30
2023-01-18T01:38:42.634Z,23.12
2023-01-18T01:41:24.495Z,23.08
2023-01-18T01:43:55.944Z,22.95
2023-01-18T01:46:35.698Z,22.97
2023-01-18T01:49:13.046Z,22.78
2023-01-18T01:51:47.548Z,22.80
2023-01-18T01:54:25.954Z,22.90
2023-01-18T01:56:59.912Z,22.93
2023-01-18T01:59:28.561Z,22.76
2023-01-18T02:01:57.447Z,22.81
2023-01-18T02:04:25.787Z,22.91
2023-01-18T02:06:54.003Z,23.08
2023-01-18T02:09:22.842Z,23.35
2023-01-18T02:11:55.891Z,23.35
2023-01-18T02:14:27.533Z,23.30
2023-01-18T02:17:23.556Z,23.28
2023-01-18T02:20:22.860Z,23.39
2023-01-18T02:23:15.958Z,23.37
2023-01-18T02:26:07.216Z,23.44
2023-01-18T02:28:37.612Z,23.45
2023-01-18T02:31:16.603Z,23.49
2023-01-18T02:34:08.243Z,23.68
2023-01-18T02:37:16.116Z,23.52
2023-01-18T02:40:11.968Z,23.36
2023-01-18T02:42:43.715Z,23.65
2023-01-18T02:45:28.054Z,23.56
2023-01-18T02:47:56.816Z,23.70
2023-01-18T02:50:28.216Z,23.85
2023-01-18T02:52:56.601Z,23.82
2023-01-18T02:55:36.843Z,23.80
2023-01-18T02:58:36.882Z,23.84
2023-01-18T03:01:16.950Z,24.08
2023-01-18T03:03:49.182Z,23.87
2023-01-18T03:06:19.890Z,23.90
2023-01-18T03:08:51.872Z,23.87
2023-01-18T03:11:40.058Z,23.96
2023-01-18T03:14:13.834Z,24.20
2023-01-18T03:17:11.368Z,24.34
2023-01-18T03:19:47.634Z,24.46
2023-01-18T03:22:16.358Z,24.43
2023-01-18T03:24:46.133Z,24.86
2023-01-18T03:27:15.011Z,25.00
2023-01-18T03:29:46.830Z,25.11
2023-01-18T03:32:19.114Z,24.76
2023-01-18T03:34:56.262Z,24.80
2023-01-18T03:37:32.127Z,24.97
2023-01-18T03:40:26.752Z,24.65
2023-01-18T03:43:09.497Z,24.65
2023-01-18T03:45:44.538Z,24.84
2023-01-18T03:48:13.755Z,24.85
2023-01-18T03:50:58.637Z,24.87
2023-01-18T03:53:37.644Z,24.99
2023-01-18T03:56:14.603Z,24.70
2023-01-18T03:58:45.319Z,24.50
2023-01-18T04:01:14.081Z,24.29
2023-01-18T04:03:42.423Z,24.37
2023-01-18T04:06:10.681Z,24.23
2023-01-18T04:08:38.775Z,24.39
2023-01-18T04:11:06.896Z,24.24
2023-01-18T04:13:35.014Z,24.20
2023-01-18T04:16:03.957Z,24.14
2023-01-18T04:18:32.889Z,24.44
2023-01-18T04:21:01.103Z,24.23
2023-01-18T04:23:29.242Z,24.22
2023-01-18T04:25:57.557Z,24.15
2023-01-18T04:28:25.725Z,24.26
2023-01-18T04:30:56.217Z,24.30
2023-01-18T04:33:25.274Z,24.03
2023-01-18T04:35:53.974Z,24.23
2023-01-18T04:38:22.556Z,24.18
2023-01-18T04:40:50.887Z,24.03
2023-01-18T04:43:18.992Z,24.07
2023-01-18T04:45:55.217Z,24.07
2023-01-18T04:48:24.399Z,23.97
2023-01-18T04:50:52.765Z,24.33
2023-01-18T04:53:21.733Z,24.48
2023-01-18T04:55:50.239Z,25.03
2023-01-18T04:58:18.372Z,25.07
2023-01-18T05:00:46.981Z,24.95
2023-01-18T05:03:15.263Z,25.31
2023-01-18T05:05:43.425Z,25.29
2023-01-18T05:08:11.461Z,25.31
2023-01-18T05:10:39.556Z,25.45
2023-01-18T05:13:07.642Z,25.54
2023-01-18T05:15:35.948Z,25.85
2023-01-18T05:18:04.298Z,25.67
2023-01-18T05:20:32.979Z,25.77
2023-01-18T05:23:01.732Z,26.04
2023-01-18T05:25:29.940Z,25.72
2023-01-18T05:27:58.081Z,25.43
2023-01-18T05:30:26.225Z,25.10
2023-01-18T05:32:55.396Z,24.69
2023-01-18T05:35:23.503Z,24.47
2023-01-18T05:37:52.257Z,24.33
2023-01-18T05:40:20.393Z,24.07
2023-01-18T05:42:48.849Z,24.14
2023-01-18T05:45:17.181Z,24.10
2023-01-18T05:47:45.562Z,24.18
2023-01-18T05:50:14.100Z,24.17
2023-01-18T05:52:42.694Z,24.05
2023-01-18T05:55:10.934Z,24.26
2023-01-18T05:57:40.257Z,24.26
2023-01-18T06:00:10.590Z,24.42
2023-01-18T06:02:38.800Z,24.38
2023-01-18T06:05:07.168Z,24.58
2023-01-18T06:07:35.361Z,24.45
2023-01-18T06:10:04.805Z,24.44
2023-01-18T06:12:32.945Z,24.36
2023-01-18T06:15:01.599Z,24.47
2023-01-18T06:17:29.727Z,24.60
2023-01-18T06:19:58.135Z,24.55
2023-01-18T06:22:26.450Z,24.72
2023-01-18T06:24:54.730Z,24.46
2023-01-18T06:27:22.838Z,24.33
2023-01-18T06:29:50.950Z,24.52
2023-01-18T06:32:19.026Z,24.62
2023-01-18T06:34:47.202Z,24.97
2023-01-18T06:37:15.505Z,25.00
2023-01-18T06:39:44.130Z,25.25
2023-01-18T06:42:12.511Z,25.42
2023-01-18T06:44:40.828Z,25.20
2023-01-18T06:47:09.769Z,25.25
2023-01-18T06:49:37.984Z,25.26
2023-01-18T06:52:06.161Z,25.15
2023-01-18T06:54:34.296Z,25.11
2023-01-18T06:57:02.915Z,25.33
2023-01-18T06:59:31.107Z,25.32
2023-01-18T07:01:59.567Z,25.76
2023-01-18T07:04:27.976Z,26.07
2023-01-18T07:06:56.333Z,26.79
2023-01-18T07:09:26.548Z,27.14
2023-01-18T07:11:55.135Z,27.21
2023-01-18T07:14:23.320Z,27.27
2023-01-18T07:16:51.821Z,27.46
2023-01-18T07:19:20.286Z,27.35
2023-01-18T07:21:48.706Z,26.96
2023-01-18T07:24:19.052Z,26.87
2023-01-18T07:26:47.191Z,26.73
2023-01-18T07:29:17.018Z,26.47
2023-01-18T07:31:47.762Z,26.25
2023-01-18T07:34:16.036Z,25.89
2023-01-18T07:36:44.670Z,25.67
2023-01-18T07:39:12.994Z,25.37
2023-01-18T07:41:41.375Z,25.52
2023-01-18T07:44:09.780Z,25.32
2023-01-18T07:46:38.250Z,25.12
2023-01-18T07:49:06.329Z,24.84
2023-01-18T07:51:34.562Z,24.42
2023-01-18T07:54:05.385Z,23.58
2023-01-18T07:56:35.311Z,22.46
2023-01-18T07:59:04.740Z,20.87
2023-01-18T08:01:33.800Z,19.72
2023-01-18T08:04:02.398Z,19.54
2023-01-18T08:06:30.524Z,19.86
2023-01-18T08:08:58.669Z,19.50
2023-01-18T08:11:26.944Z,18.91
2023-01-18T08:13:55.116Z,18.30
2023-01-18T08:16:23.569Z,17.44
2023-01-18T08:18:51.815Z,16.75
2023-01-18T08:21:20.130Z,16.30
2023-01-18T08:23:48.293Z,15.65
2023-01-18T08:26:16.723Z,15.68
2023-01-18T08:28:44.994Z,15.71
2023-01-18T08:31:16.815Z,15.97
2023-01-18T08:33:46.894Z,15.59
2023-01-18T08:36:18.972Z,15.06
2023-01-18T08:38:53.993Z,14.71
2023-01-18T08:41:23.525Z,14.22
2023-01-18T08:43:51.810Z,13.86
2023-01-18T08:46:20.949Z,13.56
2023-01-18T08:48:54.775Z,13.10
2023-01-18T08:51:23.824Z,13.04
2023-01-18T08:53:52.735Z,13.20
2023-01-18T08:56:21.797Z,12.95
2023-01-18T08:58:49.909Z,12.63
2023-01-18T09:01:18.867Z,12.14
2023-01-18T09:03:47.299Z,11.82
2023-01-18T09:06:15.640Z,11.82
2023-01-18T09:08:46.611Z,11.94
2023-01-18T09:11:15.536Z,11.76
2023-01-18T09:13:59.305Z,11.51
2023-01-18T09:16:30.912Z,11.38
2023-01-18T09:18:59.806Z,11.46
2023-01-18T09:21:28.110Z,11.17
2023-01-18T09:23:57.365Z,10.95
2023-01-18T09:26:26.014Z,10.66
2023-01-18T09:28:54.369Z,10.67
2023-01-18T09:31:25.940Z,10.56
2023-01-18T09:33:59.053Z,10.33
2023-01-18T09:36:32.770Z,10.13
2023-01-18T09:39:01.672Z,9.92
2023-01-18T09:41:44.430Z,10.02
2023-01-18T09:44:28.677Z,10.49
2023-01-18T09:47:04.362Z,10.34
2023-01-18T09:49:55.909Z,10.09
2023-01-18T09:52:33.585Z,10.12
2023-01-18T09:55:17.586Z,9.77
2023-01-18T09:57:58.101Z,9.60
2023-01-18T10:00:29.744Z,9.79
2023-01-18T10:03:14.800Z,9.78
2023-01-18T10:05:52.720Z,9.88
2023-01-18T10:08:27.537Z,10.07
2023-01-18T10:11:11.740Z,10.09
2023-01-18T10:14:01.645Z,9.89
2023-01-18T10:16:33.182Z,9.36
2023-01-18T10:19:02.655Z,9.56
2023-01-18T10:22:01.561Z,9.20
2023-01-18T10:24:52.419Z,9.03
2023-01-18T10:27:38.115Z,9.10
2023-01-18T10:30:49.677Z,9.11
2023-01-18T10:33:27.640Z,9.35
2023-01-18T10:36:03.275Z,9.52
2023-01-18T10:38:31.950Z,8.96
2023-01-18T10:41:02.071Z,8.54
2023-01-18T10:43:32.177Z,8.42
2023-01-18T10:46:00.499Z,8.44
2023-01-18T10:48:33.776Z,8.43
2023-01-18T10:51:07.033Z,8.54
2023-01-18T10:53:40.188Z,8.57
2023-01-18T10:56:14.267Z,8.19
2023-01-18T10:58:51.879Z,7.93
2023-01-18T11:01:23.420Z,7.79
2023-01-18T11:03:56.568Z,8.03
2023-01-18T11:06:25.702Z,8.32
2023-01-18T11:08:54.300Z,8.65
2023-01-18T11:11:33.136Z,8.59
2023-01-18T11:14:01.405Z,8.37
2023-01-18T11:16:29.852Z,8.28
2023-01-18T11:19:16.996Z,8.23
2023-01-18T11:21:50.701Z,8.04
2023-01-18T11:24:28.154Z,7.70
2023-01-18T11:27:06.089Z,8.00
2023-01-18T11:29:38.833Z,7.90
2023-01-18T11:32:18.118Z,7.95
2023-01-18T11:34:52.176Z,8.18
2023-01-18T11:37:36.725Z,8.23
2023-01-18T11:40:27.918Z,8.82
2023-01-18T11:43:14.521Z,9.13
2023-01-18T11:46:06.419Z,9.32
2023-01-18T11:48:57.940Z,9.17
2023-01-18T11:51:36.564Z,9.47
2023-01-18T11:54:33.801Z,9.25
2023-01-18T11:57:15.418Z,9.39
2023-01-18T11:59:46.147Z,9.46
2023-01-18T12:02:30.155Z,9.44
2023-01-18T12:05:23.317Z,9.26
2023-01-18T12:08:10.708Z,9.39
2023-01-18T12:10:47.877Z,9.69
2023-01-18T12:13:42.284Z,10.08
2023-01-18T12:16:23.500Z,10.41
2023-01-18T12:19:24.407Z,10.25
2023-01-18T12:22:01.548Z,10.58
2023-01-18T12:25:09.736Z,11.01
2023-01-18T12:27:58.144Z,11.05
2023-01-18T12:30:29.451Z,11.52
2023-01-18T12:33:31.370Z,11.85
2023-01-18T12:36:38.817Z,11.98
2023-01-18T12:39:33.993Z,11.90
2023-01-18T12:42:14.875Z,11.80
2023-01-18T12:45:07.868Z,11.52
2023-01-18T12:47:40.735Z,12.10
2023-01-18T12:50:25.478Z,12.45
2023-01-18T12:53:00.636Z,12.57
2023-01-18T12:55:33.576Z,12.77
2023-01-18T12:58:03.147Z,13.14
2023-01-18T13:00:41.060Z,13.25
2023-01-18T13:03:16.640Z,13.39
2023-01-18T13:06:01.313Z,13.81
2023-01-18T13:08:45.643Z,13.88
2023-01-18T13:11:19.732Z,14.02
2023-01-18T13:14:14.314Z,14.20
2023-01-18T13:17:05.933Z,13.97
2023-01-18T13:19:48.136Z,14.08
2023-01-18T13:22:41.276Z,13.98
2023-01-18T13:25:28.127Z,13.62
2023-01-18T13:28:13.910Z,13.63
2023-01-18T13:31:01.990Z,13.76
2023-01-18T13:33:37.103Z,13.78
2023-01-18T13:36:11.906Z,13.63
2023-01-18T13:38:59.840Z,13.33
2023-01-18T13:41:30.882Z,13.35
2023-01-18T13:44:28.839Z,13.52
2023-01-18T13:47:00.255Z,13.18
2023-01-18T13:49:38.275Z,13.29
2023-01-18T13:52:33.379Z,13.51
2023-01-18T13:55:23.396Z,13.76
2023-01-18T13:57:56.353Z,13.81
2023-01-18T14:00:26.386Z,13.82
2023-01-18T14:03:06.435Z,13.85
2023-01-18T14:05:43.253Z,13.78
2023-01-18T14:08:24.168Z,13.79
2023-01-18T14:10:56.602Z,13.83
2023-01-18T14:13:50.202Z,13.71
2023-01-18T14:16:23.427Z,13.63
2023-01-18T14:18:56.831Z,13.57
2023-01-18T14:21:48.329Z,13.78
2023-01-18T14:24:25.768Z,13.90
2023-01-18T14:26:55.934Z,13.91
2023-01-18T14:29:50.078Z,13.75
2023-01-18T14:32:22.023Z,13.54
2023-01-18T14:34:59.065Z,13.28
2023-01-18T14:37:34.988Z,13.17
2023-01-18T14:40:05.978Z,13.15
2023-01-18T14:42:38.241Z,13.46
2023-01-18T14:45:08.169Z,13.79
2023-01-18T14:47:37.799Z,13.78
2023-01-18T14:50:17.726Z,13.74
2023-01-18T14:52:48.005Z,13.62
2023-01-18T14:55:32.795Z,13.39
2023-01-18T14:58:09.055Z,13.57
2023-01-18T15:00:51.674Z,13.57
2023-01-18T15:03:26.351Z,13.74
2023-01-18T15:06:20.055Z,13.93
2023-01-18T15:08:48.442Z,13.72
2023-01-18T15:11:16.686Z,13.66
2023-01-18T15:13:49.247Z,13.61
2023-01-18T15:16:21.984Z,13.85
2023-01-18T15:18:52.538Z,13.92
2023-01-18T15:21:34.057Z,14.13
2023-01-18T15:24:13.925Z,13.67
2023-01-18T15:26:49.138Z,13.30
2023-01-18T15:29:26.561Z,13.13
2023-01-18T15:32:03.539Z,13.33
2023-01-18T15:34:36.675Z,13.47
2023-01-18T15:37:07.785Z,13.45
2023-01-18T15:39:36.053Z,13.50
2023-01-18T15:42:09.964Z,13.62
2023-01-18T15:44:44.394Z,13.60
2023-01-18T15:47:34.839Z,14.10
2023-01-18T15:50:06.602Z,13.74
2023-01-18T15:52:39.561Z,13.81
2023-01-18T15:55:21.511Z,13.83
2023-01-18T15:58:15.939Z,13.60
2023-01-18T16:00:54.040Z,13.98
2023-01-18T16:03:27.058Z,14.12
2023-01-18T16:06:17.561Z,14.11
2023-01-18T16:09:05.844Z,14.16
2023-01-18T16:11:33.952Z,13.95
2023-01-18T16:14:04.292Z,14.18
2023-01-18T16:16:38.457Z,13.85
2023-01-18T16:19:26.154Z,13.76
2023-01-18T16:22:05.340Z,13.80
2023-01-18T16:24:38.607Z,13.80
2023-01-18T16:27:13.366Z,14.00
2023-01-18T16:29:51.785Z,13.87
2023-01-18T16:32:30.607Z,14.02
2023-01-18T16:35:11.103Z,13.96
2023-01-18T16:37:39.724Z,13.89
2023-01-18T16:40:09.646Z,14.07
2023-01-18T16:42:57.278Z,14.13
2023-01-18T16:45:26.383Z,13.99
2023-01-18T16:47:55.168Z,13.92
2023-01-18T16:50:25.001Z,13.95
2023-01-18T16:52:53.340Z,13.56
2023-01-18T16:55:21.700Z,13.79
2023-01-18T16:57:51.626Z,13.73
2023-01-18T17:00:26.328Z,13.69
2023-01-18T17:02:54.607Z,13.79
2023-01-18T17:05:22.977Z,13.82
2023-01-18T17:07:51.153Z,14.11
2023-01-18T17:10:27.522Z,14.33
2023-01-18T17:12:55.787Z,14.13
2023-01-18T17:15:24.093Z,14.36
2023-01-18T17:17:52.212Z,14.77
2023-01-18T17:20:23.138Z,14.62
2023-01-18T17:22:53.491Z,14.32
2023-01-18T17:25:22.312Z,14.61
2023-01-18T17:27:51.083Z,14.77
2023-01-18T17:30:22.739Z,14.79
2023-01-18T17:32:51.461Z,14.95
2023-01-18T17:35:23.015Z,15.11
2023-01-18T17:37:57.470Z,15.08
2023-01-18T17:40:40.193Z,14.98
2023-01-18T17:43:22.173Z,14.73
2023-01-18T17:46:01.229Z,14.62
2023-01-18T17:48:30.072Z,14.10
2023-01-18T17:50:58.585Z,14.18
2023-01-18T17:53:27.349Z,14.49
2023-01-18T17:55:55.545Z,14.32
2023-01-18T17:58:23.686Z,14.14
2023-01-18T18:00:53.485Z,14.01
2023-01-18T18:03:21.982Z,14.00
2023-01-18T18:05:57.900Z,13.80
2023-01-18T18:08:26.197Z,13.69
2023-01-18T18:10:54.607Z,13.82
2023-01-18T18:13:23.810Z,13.81
2023-01-18T18:15:52.171Z,13.91
2023-01-18T18:18:23.322Z,13.86
2023-01-18T18:21:03.966Z,14.07
2023-01-18T18:23:33.690Z,14.26
2023-01-18T18:26:02.138Z,14.40
2023-01-18T18:28:32.892Z,14.61
2023-01-18T18:31:01.455Z,14.81
2023-01-18T18:33:32.425Z,15.06
2023-01-18T18:36:01.909Z,15.51
2023-01-18T18:38:30.056Z,15.43
2023-01-18T18:41:05.134Z,15.78
2023-01-18T18:43:33.603Z,15.84
2023-01-18T18:46:01.959Z,16.04
2023-01-18T18:48:30.743Z,16.07
2023-01-18T18:50:59.075Z,15.94
2023-01-18T18:53:37.645Z,16.06
2023-01-18T18:56:09.251Z,16.01
2023-01-18T18:58:38.408Z,16.18
2023-01-18T19:01:07.965Z,16.22
2023-01-18T19:03:36.602Z,16.19
2023-01-18T19:06:05.054Z,16.29
2023-01-18T19:08:33.254Z,16.51
2023-01-18T19:11:01.404Z,16.58
2023-01-18T19:13:29.633Z,16.55
2023-01-18T19:15:57.856Z,16.44
2023-01-18T19:18:26.283Z,16.43
2023-01-18T19:20:54.616Z,16.38
2023-01-18T19:23:23.819Z,16.13
2023-01-18T19:25:52.173Z,16.24
2023-01-18T19:28:20.929Z,16.21
2023-01-18T19:30:50.652Z,16.24
2023-01-18T19:33:19.220Z,16.35
2023-01-18T19:35:47.646Z,16.42
2023-01-18T19:38:16.709Z,16.49
2023-01-18T19:40:44.935Z,16.70
2023-01-18T19:43:13.019Z,16.72
2023-01-18T19:45:41.289Z,16.86
2023-01-18T19:48:09.985Z,16.83
2023-01-18T19:50:38.217Z,16.93
2023-01-18T19:53:06.400Z,16.86
2023-01-18T19:55:34.951Z,16.89
2023-01-18T19:58:03.095Z,17.29
2023-01-18T20:00:31.264Z,17.54
2023-01-18T20:03:00.437Z,17.40
2023-01-18T20:05:28.834Z,17.27
2023-01-18T20:07:57.042Z,17.42
2023-01-18T20:10:26.046Z,17.42
2023-01-18T20:12:54.399Z,17.41
2023-01-18T20:15:23.209Z,17.27
2023-01-18T20:17:52.005Z,17.54
2023-01-18T20:20:31.407Z,17.61
2023-01-18T20:23:04.446Z,17.49
2023-01-18T20:25:33.303Z,17.39
2023-01-18T20:28:01.490Z,17.16
2023-01-18T20:30:29.767Z,17.26
2023-01-18T20:32:58.516Z,17.39
2023-01-18T20:35:26.960Z,17.21
2023-01-18T20:37:56.505Z,17.34
2023-01-18T20:40:25.166Z,17.24
2023-01-18T20:42:53.202Z,17.13
2023-01-18T20:45:21.534Z,17.30
2023-01-18T20:47:49.823Z,17.35
2023-01-18T20:50:18.089Z,17.34
2023-01-18T20:52:46.718Z,17.48
2023-01-18T20:55:15.791Z,17.48
2023-01-18T20:57:45.011Z,17.58
2023-01-18T21:00:14.384Z,17.55
2023-01-18T21:02:42.780Z,17.63
2023-01-18T21:05:12.133Z,17.52
2023-01-18T21:07:41.908Z,17.58
2023-01-18T21:10:11.463Z,17.53
2023-01-18T21:12:39.783Z,17.51
2023-01-18T21:15:09.426Z,17.36
2023-01-18T21:17:37.638Z,17.27
2023-01-18T21:20:06.266Z,17.27
2023-01-18T21:22:34.552Z,17.35
2023-01-18T21:25:02.875Z,17.41
2023-01-18T21:27:31.625Z,17.71
2023-01-18T21:30:00.119Z,17.64
2023-01-18T21:32:28.273Z,17.43
2023-01-18T21:34:56.473Z,17.38
2023-01-18T21:37:25.221Z,17.54
2023-01-18T21:39:53.672Z,17.54
2023-01-18T21:42:21.750Z,17.40
2023-01-18T21:44:50.135Z,17.45
2023-01-18T21:47:19.004Z,17.56
2023-01-18T21:50:15.422Z,17.45
2023-01-18T21:52:37.459Z,17.37
2023-01-18T21:55:06.027Z,17.50
2023-01-18T21:57:34.179Z,17.62
2023-01-18T22:00:03.182Z,17.58
2023-01-18T22:02:33.251Z,17.45
2023-01-18T22:05:01.915Z,17.50
2023-01-18T22:07:32.461Z,17.28
2023-01-18T22:10:06.009Z,17.31
2023-01-18T22:12:36.411Z,17.42
2023-01-18T22:15:05.486Z,17.41
2023-01-18T22:17:33.795Z,17.59
2023-01-18T22:20:02.215Z,17.70
2023-01-18T22:22:30.504Z,17.79
2023-01-18T22:24:58.636Z,17.84
2023-01-18T22:27:26.869Z,17.98
2023-01-18T22:29:55.193Z,17.81
2023-01-18T22:32:23.337Z,17.72
2023-01-18T22:34:51.968Z,17.72
2023-01-18T22:37:20.109Z,17.86
2023-01-18T22:39:48.312Z,17.82
2023-01-18T22:42:17.719Z,17.76
2023-01-18T22:44:45.909Z,17.73
2023-01-18T22:47:15.587Z,17.68
2023-01-18T22:49:43.931Z,17.96
2023-01-18T22:52:11.997Z,18.20
2023-01-18T22:54:40.381Z,18.58
2023-01-18T22:57:08.644Z,19.03
2023-01-18T22:59:36.836Z,19.23
2023-01-18T23:02:04.998Z,19.52
2023-01-18T23:04:33.221Z,19.36
2023-01-18T23:07:01.394Z,19.35
2023-01-18T23:09:29.586Z,19.48
2023-01-18T23:11:58.115Z,19.37
2023-01-18T23:14:26.273Z,19.49
2023-01-18T23:16:54.822Z,19.58
2023-01-18T23:19:24.823Z,19.51
2023-01-18T23:21:54.132Z,19.67
2023-01-18T23:24:23.023Z,19.43
2023-01-18T23:26:52.501Z,19.12
2023-01-18T23:29:20.746Z,19.09
2023-01-18T23:31:48.823Z,19.34
2023-01-18T23:34:17.369Z,19.70
2023-01-18T23:36:45.471Z,19.75
2023-01-18T23:39:13.610Z,19.68
2023-01-18T23:41:41.964Z,19.38
2023-01-18T23:44:10.102Z,19.55
2023-01-18T23:46:38.284Z,20.03
2023-01-18T23:49:06.820Z,20.11
2023-01-18T23:51:34.961Z,20.13
2023-01-18T23:54:03.298Z,20.44
2023-01-18T23:56:32.202Z,20.34
2023-01-18T23:59:01.164Z,20.42
